DRGN03 YWLM-YAMB
Flight info
| Callsign | DRGN03 |
|---|---|
| Flight time | N/A |
| Altitude | 29000 |
| Route | NELSN DCT 332048S1524624E DCT WM20C DCT 331500S1522954E 321502S1524728E 314719S1530040E 311943S1531412E 304437S1533041E 300436S1541700E DCT AM15C DCT 295530S1535630E DCT NOMIT DCT SEMAJ DCT CG |
| Aircraft | A332/H-SDE3GHIJ2J3J5M1RVWXY/LB2D1 |
Departure
| Time | 2026-04-26 08:36 |
|---|---|
| Airport | Newcastle Airport (YWLM) |
Arrival
| Time | N/A |
|---|---|
| Airport | RAAF Base Amberley (YAMB) |
| Time | Latitude | Longitude | Altitude | Speed | Heading |
|---|---|---|---|---|---|
| 2026-04-26 08:24 | -32.79607 | 151.83918 | 39 ft | 0 kts | 190° |
| 2026-04-26 08:29 | -32.79614 | 151.83916 | 39 ft | 3 kts | 189° |
| 2026-04-26 08:29 | -32.79657 | 151.83909 | 39 ft | 9 kts | 184° |
| 2026-04-26 08:30 | -32.79720 | 151.83954 | 39 ft | 13 kts | 132° |
| 2026-04-26 08:30 | -32.79781 | 151.84048 | 41 ft | 16 kts | 124° |
| 2026-04-26 08:30 | -32.79860 | 151.84153 | 40 ft | 19 kts | 131° |
| 2026-04-26 08:30 | -32.79955 | 151.84284 | 39 ft | 22 kts | 130° |
| 2026-04-26 08:31 | -32.80061 | 151.84431 | 37 ft | 25 kts | 131° |
| 2026-04-26 08:31 | -32.80157 | 151.84565 | 37 ft | 21 kts | 131° |
| 2026-04-26 08:31 | -32.80253 | 151.84698 | 37 ft | 21 kts | 130° |
| 2026-04-26 08:31 | -32.80334 | 151.84808 | 39 ft | 15 kts | 134° |
| 2026-04-26 08:32 | -32.80409 | 151.84817 | 40 ft | 0 kts | 216° |
| 2026-04-26 08:34 | -32.80416 | 151.84812 | 40 ft | 3 kts | 216° |
| 2026-04-26 08:34 | -32.80442 | 151.84786 | 39 ft | 6 kts | 220° |
| 2026-04-26 08:34 | -32.80471 | 151.84740 | 39 ft | 8 kts | 249° |
| 2026-04-26 08:34 | -32.80459 | 151.84703 | 38 ft | 0 kts | 306° |
| 2026-04-26 08:35 | -32.80433 | 151.84664 | 37 ft | 33 kts | 308° |
| 2026-04-26 08:36 | -32.80089 | 151.84181 | 39 ft | 118 kts | 310° |
| 2026-04-26 08:36 | -32.79403 | 151.83228 | 108 ft | 175 kts | 313° |
| 2026-04-26 08:36 | -32.78597 | 151.82112 | 798 ft | 179 kts | 314° |
| 2026-04-26 08:36 | -32.77804 | 151.80989 | 1589 ft | 177 kts | 314° |
| 2026-04-26 08:37 | -32.77014 | 151.79855 | 2277 ft | 185 kts | 315° |
| 2026-04-26 08:37 | -32.75951 | 151.78997 | 2633 ft | 195 kts | 349° |
| 2026-04-26 08:37 | -32.74570 | 151.79025 | 3061 ft | 198 kts | 18° |
| 2026-04-26 08:37 | -32.73429 | 151.79854 | 3604 ft | 197 kts | 43° |
| 2026-04-26 08:38 | -32.72458 | 151.81017 | 4157 ft | 199 kts | 53° |
| 2026-04-26 08:38 | -32.71942 | 151.82545 | 4654 ft | 205 kts | 84° |
| 2026-04-26 08:38 | -32.71908 | 151.84298 | 4988 ft | 224 kts | 89° |
| 2026-04-26 08:38 | -32.71931 | 151.86241 | 5248 ft | 245 kts | 90° |
| 2026-04-26 08:39 | -32.71976 | 151.88346 | 5494 ft | 264 kts | 90° |
| 2026-04-26 08:39 | -32.72024 | 151.90578 | 6041 ft | 272 kts | 90° |
| 2026-04-26 08:39 | -32.72069 | 151.92819 | 6842 ft | 273 kts | 90° |
| 2026-04-26 08:39 | -32.72108 | 151.95078 | 7567 ft | 275 kts | 90° |
| 2026-04-26 08:40 | -32.72143 | 151.97360 | 8308 ft | 277 kts | 90° |
| 2026-04-26 08:40 | -32.72175 | 151.99660 | 9084 ft | 279 kts | 90° |
| 2026-04-26 08:40 | -32.72210 | 152.01975 | 9840 ft | 282 kts | 91° |
| 2026-04-26 08:40 | -32.72252 | 152.04320 | 10499 ft | 289 kts | 91° |
| 2026-04-26 08:41 | -32.72296 | 152.06787 | 10749 ft | 310 kts | 91° |
| 2026-04-26 08:41 | -32.72341 | 152.09436 | 10980 ft | 330 kts | 91° |
| 2026-04-26 08:41 | -32.72387 | 152.12161 | 11590 ft | 336 kts | 91° |
| 2026-04-26 08:41 | -32.72432 | 152.14962 | 12063 ft | 341 kts | 91° |
| 2026-04-26 08:42 | -32.72480 | 152.17786 | 12216 ft | 342 kts | 92° |
| 2026-04-26 08:42 | -32.72540 | 152.20605 | 12259 ft | 341 kts | 92° |
| 2026-04-26 08:42 | -32.72594 | 152.23421 | 12261 ft | 341 kts | 92° |
| 2026-04-26 08:42 | -32.72637 | 152.26235 | 12261 ft | 341 kts | 92° |
| 2026-04-26 08:43 | -32.72766 | 152.29041 | 12259 ft | 341 kts | 101° |
| 2026-04-26 08:43 | -32.73602 | 152.31666 | 12264 ft | 342 kts | 122° |
| 2026-04-26 08:43 | -32.75187 | 152.33758 | 12252 ft | 345 kts | 143° |
| 2026-04-26 08:43 | -32.77234 | 152.35279 | 12552 ft | 348 kts | 149° |
| 2026-04-26 08:44 | -32.79318 | 152.36750 | 13316 ft | 349 kts | 150° |
| 2026-04-26 08:44 | -32.81399 | 152.38206 | 14028 ft | 353 kts | 150° |
| 2026-04-26 08:44 | -32.83517 | 152.39707 | 14664 ft | 356 kts | 149° |
| 2026-04-26 08:44 | -32.85642 | 152.41237 | 15348 ft | 358 kts | 149° |
| 2026-04-26 08:45 | -32.87777 | 152.42793 | 16017 ft | 361 kts | 148° |
| 2026-04-26 08:45 | -32.89922 | 152.44365 | 16668 ft | 364 kts | 148° |
| 2026-04-26 08:45 | -32.92085 | 152.45955 | 17318 ft | 367 kts | 148° |
| 2026-04-26 08:45 | -32.94268 | 152.47560 | 17968 ft | 371 kts | 148° |
| 2026-04-26 08:46 | -32.96478 | 152.49185 | 18618 ft | 374 kts | 148° |
| 2026-04-26 08:46 | -32.98701 | 152.50819 | 19210 ft | 377 kts | 148° |
| 2026-04-26 08:46 | -33.00941 | 152.52466 | 19812 ft | 380 kts | 148° |
| 2026-04-26 08:46 | -33.03204 | 152.54129 | 20421 ft | 383 kts | 148° |
| 2026-04-26 08:47 | -33.05481 | 152.55802 | 21026 ft | 386 kts | 148° |
| 2026-04-26 08:47 | -33.07779 | 152.57490 | 21657 ft | 389 kts | 148° |
| 2026-04-26 08:47 | -33.10095 | 152.59191 | 22264 ft | 393 kts | 148° |
| 2026-04-26 08:47 | -33.12433 | 152.60909 | 22898 ft | 396 kts | 148° |
| 2026-04-26 08:48 | -33.14794 | 152.62645 | 23499 ft | 400 kts | 148° |
| 2026-04-26 08:48 | -33.17082 | 152.64474 | 24015 ft | 404 kts | 139° |
| 2026-04-26 08:48 | -33.19012 | 152.66889 | 24210 ft | 403 kts | 126° |
| 2026-04-26 08:48 | -33.20375 | 152.69810 | 24268 ft | 403 kts | 111° |
| 2026-04-26 08:49 | -33.21086 | 152.73034 | 24271 ft | 403 kts | 98° |
| 2026-04-26 08:49 | -33.21129 | 152.76371 | 24283 ft | 404 kts | 84° |
| 2026-04-26 08:49 | -33.20502 | 152.79635 | 24275 ft | 403 kts | 71° |
| 2026-04-26 08:49 | -33.19251 | 152.82590 | 24270 ft | 395 kts | 57° |
| 2026-04-26 08:50 | -33.17480 | 152.85056 | 24274 ft | 391 kts | 44° |
| 2026-04-26 08:50 | -33.15258 | 152.86967 | 24278 ft | 398 kts | 30° |
| 2026-04-26 08:50 | -33.12713 | 152.88314 | 24273 ft | 402 kts | 24° |
| 2026-04-26 08:50 | -33.10131 | 152.89589 | 24270 ft | 401 kts | 24° |
| 2026-04-26 08:51 | -33.04981 | 152.92150 | 24272 ft | 401 kts | 25° |
| 2026-04-26 08:51 | -33.02401 | 152.93433 | 24281 ft | 401 kts | 25° |
| 2026-04-26 08:51 | -32.99827 | 152.94710 | 24275 ft | 401 kts | 25° |
| 2026-04-26 08:52 | -32.97249 | 152.95989 | 24274 ft | 401 kts | 24° |
| 2026-04-26 08:52 | -32.94674 | 152.97265 | 24276 ft | 401 kts | 25° |
| 2026-04-26 08:52 | -32.92123 | 152.98529 | 24280 ft | 401 kts | 25° |
| 2026-04-26 08:52 | -32.89549 | 152.99802 | 24268 ft | 401 kts | 25° |
| 2026-04-26 08:53 | -32.86969 | 153.01078 | 24267 ft | 401 kts | 25° |
| 2026-04-26 08:53 | -32.84391 | 153.02353 | 24270 ft | 401 kts | 24° |
| 2026-04-26 08:53 | -32.81804 | 153.03631 | 24274 ft | 401 kts | 25° |
| 2026-04-26 08:53 | -32.79225 | 153.04905 | 24271 ft | 401 kts | 25° |
| 2026-04-26 08:54 | -32.76647 | 153.06177 | 24275 ft | 402 kts | 25° |
| 2026-04-26 08:54 | -32.74068 | 153.07449 | 24278 ft | 401 kts | 25° |
| 2026-04-26 08:54 | -32.71485 | 153.08721 | 24276 ft | 401 kts | 25° |
| 2026-04-26 08:54 | -32.68909 | 153.09990 | 24280 ft | 402 kts | 25° |
| 2026-04-26 08:55 | -32.66325 | 153.11262 | 24270 ft | 402 kts | 25° |
| 2026-04-26 08:55 | -32.63681 | 153.12348 | 24271 ft | 404 kts | 13° |
| 2026-04-26 08:55 | -32.60877 | 153.12631 | 24270 ft | 408 kts | 358° |
| 2026-04-26 08:55 | -32.58113 | 153.12019 | 24270 ft | 411 kts | 342° |
| 2026-04-26 08:56 | -32.55545 | 153.10524 | 24266 ft | 414 kts | 326° |
| 2026-04-26 08:56 | -32.53397 | 153.08243 | 24269 ft | 415 kts | 310° |
| 2026-04-26 08:56 | -32.51852 | 153.05364 | 24268 ft | 416 kts | 294° |
| 2026-04-26 08:56 | -32.51018 | 153.02088 | 24276 ft | 415 kts | 277° |
| 2026-04-26 08:57 | -32.50964 | 152.98692 | 24273 ft | 414 kts | 261° |
| 2026-04-26 08:57 | -32.51687 | 152.95415 | 24274 ft | 411 kts | 245° |
| 2026-04-26 08:57 | -32.53114 | 152.92507 | 24268 ft | 407 kts | 229° |
| 2026-04-26 08:57 | -32.55121 | 152.90171 | 24269 ft | 404 kts | 214° |
| 2026-04-26 08:58 | -32.57553 | 152.88555 | 24267 ft | 400 kts | 199° |
| 2026-04-26 08:58 | -32.60227 | 152.87731 | 24271 ft | 397 kts | 187° |
| 2026-04-26 08:58 | -32.62952 | 152.87184 | 24268 ft | 397 kts | 187° |
| 2026-04-26 08:58 | -32.65675 | 152.86634 | 24272 ft | 397 kts | 187° |
| 2026-04-26 08:59 | -32.68398 | 152.86074 | 24273 ft | 397 kts | 188° |
| 2026-04-26 08:59 | -32.71124 | 152.85505 | 24267 ft | 397 kts | 188° |
| 2026-04-26 08:59 | -32.73849 | 152.84932 | 24266 ft | 397 kts | 188° |
| 2026-04-26 08:59 | -32.76571 | 152.84360 | 24274 ft | 397 kts | 187° |
| 2026-04-26 09:00 | -32.79301 | 152.83809 | 24272 ft | 398 kts | 187° |
| 2026-04-26 09:00 | -32.81993 | 152.83264 | 24266 ft | 397 kts | 187° |
| 2026-04-26 09:00 | -32.84714 | 152.82701 | 24272 ft | 398 kts | 188° |
| 2026-04-26 09:00 | -32.87441 | 152.82110 | 24276 ft | 398 kts | 188° |
| 2026-04-26 09:01 | -32.90163 | 152.81519 | 24270 ft | 398 kts | 185° |
| 2026-04-26 09:01 | -32.92900 | 152.81026 | 24276 ft | 398 kts | 184° |
| 2026-04-26 09:01 | -32.95645 | 152.80549 | 24277 ft | 398 kts | 184° |
| 2026-04-26 09:01 | -32.98379 | 152.80030 | 24272 ft | 398 kts | 185° |
| 2026-04-26 09:02 | -33.01118 | 152.79468 | 24269 ft | 398 kts | 186° |
| 2026-04-26 09:02 | -33.03850 | 152.78887 | 24278 ft | 398 kts | 186° |
| 2026-04-26 09:02 | -33.06578 | 152.78309 | 24280 ft | 399 kts | 186° |
| 2026-04-26 09:02 | -33.09311 | 152.77724 | 24284 ft | 399 kts | 186° |
| 2026-04-26 09:03 | -33.12008 | 152.77139 | 24270 ft | 399 kts | 186° |
| 2026-04-26 09:03 | -33.14739 | 152.76546 | 24281 ft | 399 kts | 187° |
| 2026-04-26 09:03 | -33.17471 | 152.75951 | 24276 ft | 399 kts | 187° |
| 2026-04-26 09:03 | -33.20205 | 152.75358 | 24273 ft | 399 kts | 187° |
| 2026-04-26 09:04 | -33.22931 | 152.74767 | 24273 ft | 399 kts | 187° |
| 2026-04-26 09:04 | -33.25667 | 152.74174 | 24285 ft | 399 kts | 187° |
| 2026-04-26 09:04 | -33.28407 | 152.73627 | 24281 ft | 398 kts | 182° |
| 2026-04-26 09:04 | -33.31156 | 152.73741 | 24273 ft | 395 kts | 167° |
| 2026-04-26 09:05 | -33.33761 | 152.74729 | 24286 ft | 393 kts | 151° |
| 2026-04-26 09:05 | -33.36035 | 152.76508 | 24281 ft | 391 kts | 136° |
| 2026-04-26 09:05 | -33.37825 | 152.78942 | 24282 ft | 390 kts | 121° |
| 2026-04-26 09:05 | -33.39009 | 152.81847 | 24271 ft | 389 kts | 107° |
| 2026-04-26 09:06 | -33.39512 | 152.85015 | 24279 ft | 390 kts | 92° |
| 2026-04-26 09:06 | -33.39306 | 152.88209 | 24276 ft | 391 kts | 77° |
| 2026-04-26 09:06 | -33.38392 | 152.91271 | 24280 ft | 393 kts | 62° |
| 2026-04-26 09:06 | -33.36820 | 152.93953 | 24272 ft | 396 kts | 47° |
| 2026-04-26 09:07 | -33.34698 | 152.96045 | 24271 ft | 399 kts | 32° |
| 2026-04-26 09:07 | -33.32162 | 152.97391 | 24277 ft | 402 kts | 16° |
| 2026-04-26 09:07 | -33.29415 | 152.98051 | 24276 ft | 403 kts | 12° |
| 2026-04-26 09:07 | -33.28726 | 152.98206 | 24278 ft | 403 kts | 12° |
| 2026-04-26 09:08 | -33.26017 | 152.98831 | 24285 ft | 403 kts | 12° |
| 2026-04-26 09:08 | -33.23256 | 152.99460 | 24280 ft | 403 kts | 12° |
| 2026-04-26 09:08 | -33.20497 | 153.00068 | 24286 ft | 403 kts | 12° |
| 2026-04-26 09:08 | -33.17733 | 153.00663 | 24278 ft | 403 kts | 11° |
| 2026-04-26 09:09 | -33.14968 | 153.01249 | 24270 ft | 404 kts | 11° |
| 2026-04-26 09:09 | -33.12202 | 153.01832 | 24271 ft | 403 kts | 11° |
| 2026-04-26 09:09 | -33.09469 | 153.02407 | 24275 ft | 404 kts | 11° |
| 2026-04-26 09:09 | -33.06667 | 153.02997 | 24274 ft | 404 kts | 11° |
| 2026-04-26 09:10 | -33.03938 | 153.03571 | 24281 ft | 404 kts | 12° |
| 2026-04-26 09:10 | -33.01168 | 153.04154 | 24278 ft | 404 kts | 12° |
| 2026-04-26 09:10 | -32.98399 | 153.04736 | 24282 ft | 404 kts | 12° |
| 2026-04-26 09:10 | -32.95629 | 153.05319 | 24275 ft | 404 kts | 12° |
| 2026-04-26 09:11 | -32.92853 | 153.05902 | 24281 ft | 404 kts | 12° |
| 2026-04-26 09:11 | -32.90080 | 153.06485 | 24278 ft | 404 kts | 12° |
| 2026-04-26 09:11 | -32.87307 | 153.07068 | 24274 ft | 404 kts | 12° |
| 2026-04-26 09:11 | -32.84536 | 153.07650 | 24277 ft | 404 kts | 12° |
| 2026-04-26 09:12 | -32.82854 | 153.08003 | 24278 ft | 404 kts | 12° |
| 2026-04-26 09:12 | -32.80130 | 153.08575 | 24273 ft | 404 kts | 12° |
| 2026-04-26 09:12 | -32.77361 | 153.09157 | 24269 ft | 404 kts | 12° |
| 2026-04-26 09:12 | -32.74627 | 153.09731 | 24278 ft | 404 kts | 12° |
| 2026-04-26 09:13 | -32.71856 | 153.10312 | 24276 ft | 405 kts | 12° |
| 2026-04-26 09:13 | -32.69042 | 153.10903 | 24275 ft | 404 kts | 12° |
| 2026-04-26 09:13 | -32.66307 | 153.11477 | 24276 ft | 405 kts | 12° |
| 2026-04-26 09:13 | -32.63515 | 153.11956 | 24270 ft | 406 kts | 3° |
| 2026-04-26 09:14 | -32.60695 | 153.11636 | 24270 ft | 410 kts | 347° |
| 2026-04-26 09:14 | -32.58030 | 153.10397 | 24265 ft | 413 kts | 330° |
| 2026-04-26 09:14 | -32.55740 | 153.08328 | 24268 ft | 415 kts | 314° |
| 2026-04-26 09:14 | -32.54012 | 153.05595 | 24274 ft | 416 kts | 298° |
| 2026-04-26 09:15 | -32.52975 | 153.02407 | 24272 ft | 416 kts | 282° |
| 2026-04-26 09:15 | -32.52710 | 153.00162 | 24278 ft | 415 kts | 271° |
| 2026-04-26 09:15 | -32.52971 | 152.96768 | 24276 ft | 413 kts | 254° |
| 2026-04-26 09:15 | -32.54476 | 152.92697 | 24274 ft | 408 kts | 233° |
| 2026-04-26 09:16 | -32.56382 | 152.90216 | 24266 ft | 404 kts | 217° |
| 2026-04-26 09:16 | -32.57912 | 152.88957 | 24269 ft | 402 kts | 207° |
| 2026-04-26 09:16 | -32.60472 | 152.87660 | 24266 ft | 399 kts | 193° |
| 2026-04-26 09:16 | -32.63186 | 152.87043 | 24271 ft | 397 kts | 186° |
| 2026-04-26 09:17 | -32.65921 | 152.86535 | 24277 ft | 398 kts | 187° |
| 2026-04-26 09:17 | -32.68651 | 152.86002 | 24272 ft | 397 kts | 187° |
| 2026-04-26 09:17 | -32.71374 | 152.85449 | 24276 ft | 398 kts | 188° |
| 2026-04-26 09:17 | -32.74100 | 152.84881 | 24266 ft | 398 kts | 188° |
| 2026-04-26 09:18 | -32.76826 | 152.84307 | 24272 ft | 398 kts | 188° |
| 2026-04-26 09:18 | -32.79569 | 152.83727 | 24274 ft | 398 kts | 188° |
| 2026-04-26 09:18 | -32.82289 | 152.83152 | 24273 ft | 398 kts | 188° |
| 2026-04-26 09:18 | -32.84984 | 152.82583 | 24272 ft | 398 kts | 188° |
| 2026-04-26 09:19 | -32.87706 | 152.82008 | 24276 ft | 398 kts | 188° |
| 2026-04-26 09:19 | -32.90437 | 152.81431 | 24281 ft | 398 kts | 188° |
| 2026-04-26 09:19 | -32.93168 | 152.80854 | 24275 ft | 398 kts | 188° |
| 2026-04-26 09:19 | -32.95898 | 152.80277 | 24275 ft | 398 kts | 188° |
| 2026-04-26 09:20 | -32.98629 | 152.79699 | 24278 ft | 398 kts | 188° |
| 2026-04-26 09:20 | -33.01356 | 152.79123 | 24275 ft | 398 kts | 188° |
| 2026-04-26 09:20 | -33.04094 | 152.78544 | 24277 ft | 399 kts | 188° |
| 2026-04-26 09:20 | -33.06819 | 152.77968 | 24282 ft | 399 kts | 188° |
| 2026-04-26 09:21 | -33.09559 | 152.77389 | 24274 ft | 399 kts | 188° |
| 2026-04-26 09:21 | -33.12293 | 152.76811 | 24278 ft | 398 kts | 188° |
| 2026-04-26 09:21 | -33.15026 | 152.76233 | 24268 ft | 399 kts | 188° |
| 2026-04-26 09:21 | -33.17757 | 152.75656 | 24273 ft | 399 kts | 188° |
| 2026-04-26 09:22 | -33.20489 | 152.75079 | 24280 ft | 399 kts | 188° |
| 2026-04-26 09:22 | -33.23226 | 152.74501 | 24279 ft | 399 kts | 188° |
| 2026-04-26 09:22 | -33.25965 | 152.73923 | 24274 ft | 399 kts | 188° |
| 2026-04-26 09:22 | -33.28708 | 152.73425 | 24268 ft | 398 kts | 181° |
| 2026-04-26 09:23 | -33.31454 | 152.73653 | 24267 ft | 395 kts | 166° |
| 2026-04-26 09:23 | -33.34004 | 152.74719 | 24282 ft | 393 kts | 151° |
| 2026-04-26 09:23 | -33.36236 | 152.76554 | 24286 ft | 391 kts | 136° |
| 2026-04-26 09:23 | -33.37996 | 152.79041 | 24284 ft | 389 kts | 121° |
| 2026-04-26 09:24 | -33.39138 | 152.81967 | 24272 ft | 389 kts | 107° |
| 2026-04-26 09:24 | -33.39604 | 152.85151 | 24278 ft | 390 kts | 92° |
| 2026-04-26 09:24 | -33.39357 | 152.88378 | 24274 ft | 391 kts | 77° |
| 2026-04-26 09:24 | -33.38408 | 152.91426 | 24270 ft | 393 kts | 62° |
| 2026-04-26 09:25 | -33.36811 | 152.94087 | 24290 ft | 395 kts | 47° |
| 2026-04-26 09:25 | -33.34672 | 152.96155 | 24285 ft | 398 kts | 32° |
| 2026-04-26 09:25 | -33.32130 | 152.97477 | 24274 ft | 402 kts | 17° |
| 2026-04-26 09:25 | -33.29382 | 152.98127 | 24279 ft | 403 kts | 12° |
| 2026-04-26 09:26 | -33.26624 | 152.98757 | 24279 ft | 403 kts | 12° |
| 2026-04-26 09:26 | -33.23900 | 152.99378 | 24273 ft | 403 kts | 12° |
| 2026-04-26 09:26 | -33.21143 | 152.99987 | 24284 ft | 403 kts | 12° |
| 2026-04-26 09:26 | -33.18380 | 153.00579 | 24278 ft | 403 kts | 12° |
| 2026-04-26 09:27 | -33.15620 | 153.01162 | 24286 ft | 403 kts | 12° |
| 2026-04-26 09:27 | -33.12847 | 153.01743 | 24271 ft | 403 kts | 12° |
| 2026-04-26 09:27 | -33.10076 | 153.02322 | 24273 ft | 403 kts | 12° |
| 2026-04-26 09:27 | -33.07317 | 153.02898 | 24279 ft | 403 kts | 12° |
| 2026-04-26 09:28 | -33.04546 | 153.03478 | 24277 ft | 403 kts | 12° |
| 2026-04-26 09:28 | -33.01776 | 153.04057 | 24280 ft | 403 kts | 12° |
| 2026-04-26 09:28 | -32.99011 | 153.04636 | 24279 ft | 404 kts | 12° |
| 2026-04-26 09:28 | -32.96280 | 153.05208 | 24279 ft | 404 kts | 12° |
| 2026-04-26 09:29 | -32.93516 | 153.05787 | 24282 ft | 404 kts | 12° |
| 2026-04-26 09:29 | -32.90749 | 153.06367 | 24276 ft | 404 kts | 12° |
| 2026-04-26 09:29 | -32.87974 | 153.06948 | 24272 ft | 404 kts | 12° |
| 2026-04-26 09:29 | -32.85208 | 153.07528 | 24276 ft | 404 kts | 12° |
| 2026-04-26 09:30 | -32.82442 | 153.08108 | 24270 ft | 404 kts | 12° |
| 2026-04-26 09:30 | -32.79670 | 153.08689 | 24274 ft | 404 kts | 12° |
| 2026-04-26 09:30 | -32.76897 | 153.09270 | 24280 ft | 404 kts | 12° |
| 2026-04-26 09:30 | -32.74124 | 153.09851 | 24276 ft | 404 kts | 12° |
| 2026-04-26 09:31 | -32.71355 | 153.10431 | 24277 ft | 404 kts | 12° |
| 2026-04-26 09:31 | -32.68574 | 153.11013 | 24269 ft | 404 kts | 12° |
| 2026-04-26 09:31 | -32.65801 | 153.11594 | 24274 ft | 404 kts | 12° |
| 2026-04-26 09:31 | -32.62989 | 153.11825 | 24273 ft | 408 kts | 357° |
| 2026-04-26 09:32 | -32.60240 | 153.11170 | 24274 ft | 411 kts | 341° |
| 2026-04-26 09:32 | -32.57681 | 153.09620 | 24273 ft | 414 kts | 325° |
| 2026-04-26 09:32 | -32.55571 | 153.07305 | 24274 ft | 416 kts | 309° |
| 2026-04-26 09:32 | -32.54062 | 153.04395 | 24275 ft | 416 kts | 292° |
| 2026-04-26 09:33 | -32.53281 | 153.01100 | 24275 ft | 415 kts | 276° |
| 2026-04-26 09:33 | -32.53296 | 152.97692 | 24275 ft | 414 kts | 259° |
| 2026-04-26 09:33 | -32.54107 | 152.94432 | 24272 ft | 411 kts | 243° |
| 2026-04-26 09:33 | -32.55626 | 152.91599 | 24272 ft | 407 kts | 227° |
| 2026-04-26 09:34 | -32.57712 | 152.89356 | 24274 ft | 404 kts | 211° |
| 2026-04-26 09:34 | -32.60160 | 152.87866 | 24266 ft | 400 kts | 197° |
| 2026-04-26 09:34 | -32.62858 | 152.87122 | 24266 ft | 397 kts | 187° |
| 2026-04-26 09:34 | -32.65590 | 152.86591 | 24276 ft | 398 kts | 187° |
| 2026-04-26 09:35 | -32.68320 | 152.86056 | 24271 ft | 398 kts | 187° |
| 2026-04-26 09:35 | -32.71051 | 152.85503 | 24267 ft | 398 kts | 187° |
| 2026-04-26 09:35 | -32.73780 | 152.84944 | 24278 ft | 398 kts | 187° |
| 2026-04-26 09:35 | -32.76506 | 152.84378 | 24268 ft | 398 kts | 187° |
| 2026-04-26 09:36 | -32.79237 | 152.83804 | 24277 ft | 398 kts | 188° |
| 2026-04-26 09:36 | -32.81962 | 152.83228 | 24272 ft | 398 kts | 188° |
| 2026-04-26 09:36 | -32.84692 | 152.82649 | 24279 ft | 398 kts | 188° |
| 2026-04-26 09:36 | -32.87419 | 152.82070 | 24277 ft | 398 kts | 188° |
| 2026-04-26 09:37 | -32.90151 | 152.81490 | 24271 ft | 398 kts | 188° |
| 2026-04-26 09:37 | -32.92885 | 152.80926 | 24270 ft | 398 kts | 187° |
| 2026-04-26 09:37 | -32.95617 | 152.80378 | 24271 ft | 398 kts | 187° |
| 2026-04-26 09:37 | -32.98352 | 152.79820 | 24271 ft | 399 kts | 187° |
| 2026-04-26 09:38 | -33.01082 | 152.79250 | 24277 ft | 399 kts | 187° |
| 2026-04-26 09:38 | -33.03819 | 152.78669 | 24271 ft | 399 kts | 187° |
| 2026-04-26 09:38 | -33.06514 | 152.78094 | 24275 ft | 399 kts | 187° |
| 2026-04-26 09:38 | -33.09253 | 152.77508 | 24280 ft | 399 kts | 187° |
| 2026-04-26 09:39 | -33.11990 | 152.76923 | 24265 ft | 399 kts | 188° |
| 2026-04-26 09:39 | -33.14721 | 152.76341 | 24271 ft | 399 kts | 188° |
| 2026-04-26 09:39 | -33.17458 | 152.75757 | 24281 ft | 399 kts | 188° |
| 2026-04-26 09:39 | -33.20195 | 152.75172 | 24282 ft | 399 kts | 188° |
| 2026-04-26 09:40 | -33.22935 | 152.74587 | 24278 ft | 399 kts | 188° |
| 2026-04-26 09:40 | -33.25459 | 152.74049 | 24266 ft | 399 kts | 188° |
| 2026-04-26 09:40 | -33.27297 | 152.73659 | 24271 ft | 399 kts | 187° |
| 2026-04-26 09:40 | -33.30053 | 152.73440 | 24284 ft | 397 kts | 173° |
| 2026-04-26 09:41 | -33.32748 | 152.74093 | 24280 ft | 394 kts | 158° |
| 2026-04-26 09:41 | -33.35156 | 152.75549 | 24278 ft | 392 kts | 143° |
| 2026-04-26 09:41 | -33.37172 | 152.77729 | 24276 ft | 390 kts | 128° |
| 2026-04-26 09:41 | -33.38629 | 152.80446 | 24271 ft | 389 kts | 114° |
| 2026-04-26 09:42 | -33.39442 | 152.83532 | 24278 ft | 390 kts | 99° |
| 2026-04-26 09:42 | -33.39552 | 152.86768 | 24286 ft | 390 kts | 84° |
| 2026-04-26 09:42 | -33.38949 | 152.89933 | 24285 ft | 392 kts | 69° |
| 2026-04-26 09:42 | -33.37669 | 152.92805 | 24283 ft | 394 kts | 54° |
| 2026-04-26 09:43 | -33.35788 | 152.95189 | 24281 ft | 397 kts | 39° |
| 2026-04-26 09:43 | -33.33423 | 152.96905 | 24278 ft | 400 kts | 24° |
| 2026-04-26 09:43 | -33.30741 | 152.97816 | 24280 ft | 402 kts | 11° |
| 2026-04-26 09:43 | -33.28024 | 152.98417 | 24276 ft | 403 kts | 12° |
| 2026-04-26 09:44 | -33.25265 | 152.99054 | 24275 ft | 402 kts | 12° |
| 2026-04-26 09:44 | -33.22502 | 152.99676 | 24283 ft | 402 kts | 12° |
| 2026-04-26 09:44 | -33.19744 | 153.00276 | 24281 ft | 403 kts | 12° |
| 2026-04-26 09:44 | -33.16987 | 153.00863 | 24269 ft | 403 kts | 12° |
| 2026-04-26 09:45 | -33.14222 | 153.01444 | 24282 ft | 403 kts | 11° |
| 2026-04-26 09:45 | -33.11462 | 153.02021 | 24268 ft | 403 kts | 11° |
| 2026-04-26 09:45 | -33.08696 | 153.02598 | 24273 ft | 403 kts | 11° |
| 2026-04-26 09:45 | -33.05938 | 153.03174 | 24285 ft | 403 kts | 12° |
| 2026-04-26 09:46 | -33.03203 | 153.03747 | 24270 ft | 403 kts | 12° |
| 2026-04-26 09:46 | -33.00440 | 153.04327 | 24277 ft | 403 kts | 12° |
| 2026-04-26 09:46 | -32.97676 | 153.04907 | 24278 ft | 403 kts | 12° |
| 2026-04-26 09:46 | -32.94908 | 153.05488 | 24279 ft | 403 kts | 12° |
| 2026-04-26 09:47 | -32.92139 | 153.06069 | 24279 ft | 404 kts | 12° |
| 2026-04-26 09:47 | -32.89371 | 153.06650 | 24278 ft | 404 kts | 12° |
| 2026-04-26 09:47 | -32.86599 | 153.07231 | 24275 ft | 404 kts | 12° |
| 2026-04-26 09:47 | -32.83829 | 153.07812 | 24281 ft | 404 kts | 12° |
| 2026-04-26 09:48 | -32.81060 | 153.08393 | 24275 ft | 404 kts | 12° |
| 2026-04-26 09:48 | -32.78334 | 153.08964 | 24278 ft | 404 kts | 12° |
| 2026-04-26 09:48 | -32.75564 | 153.09545 | 24282 ft | 404 kts | 12° |
| 2026-04-26 09:48 | -32.72788 | 153.10127 | 24281 ft | 404 kts | 12° |
| 2026-04-26 09:49 | -32.70019 | 153.10707 | 24278 ft | 404 kts | 12° |
| 2026-04-26 09:49 | -32.67246 | 153.11288 | 24278 ft | 404 kts | 12° |
| 2026-04-26 09:49 | -32.64464 | 153.11808 | 24275 ft | 405 kts | 6° |
| 2026-04-26 09:49 | -32.61638 | 153.11617 | 24281 ft | 410 kts | 349° |
| 2026-04-26 09:50 | -32.58936 | 153.10512 | 24269 ft | 413 kts | 333° |
| 2026-04-26 09:50 | -32.56604 | 153.08595 | 24270 ft | 415 kts | 317° |
| 2026-04-26 09:50 | -32.54766 | 153.05965 | 24273 ft | 416 kts | 301° |
| 2026-04-26 09:50 | -32.53593 | 153.02834 | 24276 ft | 416 kts | 285° |
| 2026-04-26 09:51 | -32.53180 | 152.99450 | 24282 ft | 415 kts | 268° |
| 2026-04-26 09:51 | -32.53553 | 152.96084 | 24269 ft | 413 kts | 252° |
| 2026-04-26 09:51 | -32.54683 | 152.92977 | 24280 ft | 410 kts | 236° |
| 2026-04-26 09:51 | -32.56474 | 152.90382 | 24268 ft | 406 kts | 219° |
| 2026-04-26 09:52 | -32.58779 | 152.88480 | 24263 ft | 402 kts | 204° |
| 2026-04-26 09:52 | -32.64123 | 152.86819 | 24272 ft | 398 kts | 187° |
| 2026-04-26 09:52 | -32.66855 | 152.86297 | 24271 ft | 398 kts | 187° |
| 2026-04-26 09:53 | -32.69556 | 152.85766 | 24271 ft | 398 kts | 187° |
| 2026-04-26 09:53 | -32.72288 | 152.85209 | 24270 ft | 398 kts | 187° |
| 2026-04-26 09:53 | -32.75015 | 152.84642 | 24264 ft | 398 kts | 188° |
| 2026-04-26 09:53 | -32.77743 | 152.84068 | 24272 ft | 398 kts | 188° |
| 2026-04-26 09:54 | -32.80471 | 152.83492 | 24273 ft | 398 kts | 188° |
| 2026-04-26 09:54 | -32.83203 | 152.82913 | 24271 ft | 398 kts | 188° |
| 2026-04-26 09:54 | -32.85931 | 152.82336 | 24269 ft | 398 kts | 188° |
| 2026-04-26 09:54 | -32.88659 | 152.81758 | 24272 ft | 398 kts | 188° |
| 2026-04-26 09:55 | -32.91387 | 152.81181 | 24275 ft | 399 kts | 188° |
| 2026-04-26 09:55 | -32.94119 | 152.80603 | 24268 ft | 399 kts | 188° |
| 2026-04-26 09:55 | -32.96850 | 152.80025 | 24274 ft | 399 kts | 188° |
| 2026-04-26 09:55 | -32.99586 | 152.79446 | 24273 ft | 399 kts | 188° |
| 2026-04-26 09:56 | -33.02318 | 152.78868 | 24279 ft | 399 kts | 188° |
| 2026-04-26 09:56 | -33.05055 | 152.78290 | 24269 ft | 399 kts | 188° |
| 2026-04-26 09:56 | -33.07794 | 152.77710 | 24273 ft | 399 kts | 188° |
| 2026-04-26 09:56 | -33.10494 | 152.77139 | 24271 ft | 399 kts | 188° |
| 2026-04-26 09:57 | -33.13229 | 152.76561 | 24272 ft | 399 kts | 188° |
| 2026-04-26 09:57 | -33.15957 | 152.75985 | 24275 ft | 399 kts | 188° |
| 2026-04-26 09:57 | -33.18698 | 152.75406 | 24280 ft | 399 kts | 188° |
| 2026-04-26 09:57 | -33.21425 | 152.74829 | 24276 ft | 400 kts | 188° |
| 2026-04-26 09:58 | -33.24169 | 152.74250 | 24284 ft | 400 kts | 188° |
| 2026-04-26 09:58 | -33.26914 | 152.73670 | 24281 ft | 400 kts | 188° |
| 2026-04-26 09:58 | -33.29671 | 152.73352 | 24266 ft | 397 kts | 176° |
| 2026-04-26 09:58 | -33.32380 | 152.73884 | 24282 ft | 395 kts | 161° |
| 2026-04-26 09:59 | -33.34864 | 152.75250 | 24276 ft | 392 kts | 146° |
| 2026-04-26 09:59 | -33.36285 | 152.76549 | 24273 ft | 391 kts | 136° |
| 2026-04-26 09:59 | -33.38488 | 152.79995 | 24273 ft | 389 kts | 116° |
| 2026-04-26 09:59 | -33.39399 | 152.83040 | 24278 ft | 389 kts | 101° |
| 2026-04-26 10:00 | -33.39616 | 152.86261 | 24274 ft | 390 kts | 86° |
| 2026-04-26 10:00 | -33.39121 | 152.89447 | 24283 ft | 391 kts | 72° |
| 2026-04-26 10:00 | -33.37943 | 152.92381 | 24273 ft | 393 kts | 57° |
| 2026-04-26 10:00 | -33.36154 | 152.94852 | 24277 ft | 396 kts | 42° |
| 2026-04-26 10:01 | -33.33892 | 152.96668 | 24283 ft | 399 kts | 27° |
| 2026-04-26 10:01 | -33.31257 | 152.97723 | 24273 ft | 402 kts | 12° |
| 2026-04-26 10:01 | -33.28501 | 152.98326 | 24275 ft | 403 kts | 12° |
| 2026-04-26 10:01 | -33.25735 | 152.98962 | 24276 ft | 403 kts | 12° |
| 2026-04-26 10:02 | -33.22985 | 152.99583 | 24284 ft | 403 kts | 12° |
| 2026-04-26 10:02 | -33.20230 | 153.00185 | 24276 ft | 403 kts | 12° |
| 2026-04-26 10:02 | -33.17467 | 153.00773 | 24275 ft | 403 kts | 12° |
| 2026-04-26 10:02 | -33.14708 | 153.01353 | 24279 ft | 403 kts | 12° |
| 2026-04-26 10:03 | -33.12877 | 153.01737 | 24278 ft | 403 kts | 12° |
| 2026-04-26 10:03 | -33.09222 | 153.02504 | 24270 ft | 403 kts | 12° |
| 2026-04-26 10:03 | -33.06460 | 153.03087 | 24284 ft | 403 kts | 12° |
| 2026-04-26 10:03 | -33.03690 | 153.03668 | 24275 ft | 403 kts | 12° |
| 2026-04-26 10:04 | -33.00920 | 153.04245 | 24269 ft | 403 kts | 12° |
| 2026-04-26 10:04 | -32.98155 | 153.04821 | 24281 ft | 403 kts | 12° |
| 2026-04-26 10:04 | -32.95392 | 153.05397 | 24279 ft | 404 kts | 12° |
| 2026-04-26 10:04 | -32.93560 | 153.05780 | 24285 ft | 404 kts | 12° |
| 2026-04-26 10:05 | -32.90790 | 153.06360 | 24279 ft | 404 kts | 12° |
| 2026-04-26 10:05 | -32.87115 | 153.07129 | 24281 ft | 404 kts | 12° |
| 2026-04-26 10:05 | -32.85245 | 153.07520 | 24271 ft | 404 kts | 12° |
| 2026-04-26 10:05 | -32.82477 | 153.08100 | 24270 ft | 404 kts | 12° |
| 2026-04-26 10:06 | -32.79708 | 153.08680 | 24283 ft | 404 kts | 12° |
| 2026-04-26 10:06 | -32.76962 | 153.09256 | 24269 ft | 404 kts | 12° |
| 2026-04-26 10:06 | -32.74194 | 153.09836 | 24275 ft | 404 kts | 12° |
| 2026-04-26 10:06 | -32.71422 | 153.10417 | 24273 ft | 404 kts | 12° |
| 2026-04-26 10:07 | -32.68648 | 153.10998 | 24274 ft | 405 kts | 12° |
| 2026-04-26 10:07 | -32.65865 | 153.11581 | 24267 ft | 405 kts | 12° |
| 2026-04-26 10:07 | -32.63089 | 153.11834 | 24276 ft | 408 kts | 358° |
| 2026-04-26 10:07 | -32.60287 | 153.11195 | 24269 ft | 412 kts | 342° |
| 2026-04-26 10:08 | -32.57730 | 153.09672 | 24269 ft | 414 kts | 326° |
| 2026-04-26 10:08 | -32.55602 | 153.07371 | 24279 ft | 416 kts | 309° |
| 2026-04-26 10:08 | -32.54072 | 153.04468 | 24269 ft | 417 kts | 293° |
| 2026-04-26 10:08 | -32.53259 | 153.01188 | 24278 ft | 416 kts | 277° |
| 2026-04-26 10:09 | -32.53221 | 152.97774 | 24265 ft | 414 kts | 261° |
| 2026-04-26 10:09 | -32.53963 | 152.94495 | 24276 ft | 412 kts | 244° |
| 2026-04-26 10:09 | -32.55422 | 152.91601 | 24280 ft | 408 kts | 228° |
| 2026-04-26 10:09 | -32.57475 | 152.89322 | 24275 ft | 404 kts | 212° |
| 2026-04-26 10:10 | -32.59949 | 152.87796 | 24276 ft | 400 kts | 197° |
| 2026-04-26 10:10 | -32.62637 | 152.87047 | 24280 ft | 396 kts | 187° |
| 2026-04-26 10:10 | -32.65366 | 152.86533 | 24275 ft | 397 kts | 187° |
| 2026-04-26 10:10 | -32.68090 | 152.86006 | 24269 ft | 397 kts | 187° |
| 2026-04-26 10:11 | -32.70814 | 152.85457 | 24271 ft | 397 kts | 187° |
| 2026-04-26 10:11 | -32.73536 | 152.84894 | 24266 ft | 397 kts | 187° |
| 2026-04-26 10:11 | -32.76258 | 152.84322 | 24272 ft | 397 kts | 188° |
| 2026-04-26 10:11 | -32.78979 | 152.83748 | 24274 ft | 397 kts | 188° |
| 2026-04-26 10:12 | -32.81703 | 152.83172 | 24265 ft | 397 kts | 188° |
| 2026-04-26 10:12 | -32.84391 | 152.82604 | 24266 ft | 397 kts | 188° |
| 2026-04-26 10:12 | -32.87112 | 152.82029 | 24269 ft | 397 kts | 188° |
| 2026-04-26 10:12 | -32.89834 | 152.81455 | 24272 ft | 397 kts | 188° |
| 2026-04-26 10:13 | -32.92557 | 152.80880 | 24265 ft | 398 kts | 188° |
| 2026-04-26 10:13 | -32.95288 | 152.80303 | 24275 ft | 397 kts | 188° |
| 2026-04-26 10:13 | -32.98005 | 152.79729 | 24277 ft | 397 kts | 188° |
| 2026-04-26 10:13 | -33.00735 | 152.79152 | 24278 ft | 397 kts | 188° |
| 2026-04-26 10:14 | -33.03465 | 152.78575 | 24277 ft | 398 kts | 188° |
| 2026-04-26 10:14 | -33.06155 | 152.78008 | 24276 ft | 397 kts | 187° |
| 2026-04-26 10:14 | -33.08914 | 152.77451 | 24275 ft | 397 kts | 187° |
| 2026-04-26 10:14 | -33.11611 | 152.76907 | 24275 ft | 398 kts | 187° |
| 2026-04-26 10:15 | -33.14333 | 152.76346 | 24274 ft | 398 kts | 187° |
| 2026-04-26 10:15 | -33.17069 | 152.75772 | 24277 ft | 398 kts | 187° |
| 2026-04-26 10:15 | -33.19796 | 152.75194 | 24276 ft | 398 kts | 187° |
| 2026-04-26 10:15 | -33.22521 | 152.74614 | 24277 ft | 398 kts | 187° |
| 2026-04-26 10:16 | -33.25245 | 152.74034 | 24280 ft | 398 kts | 187° |
| 2026-04-26 10:16 | -33.27980 | 152.73466 | 24278 ft | 397 kts | 185° |
| 2026-04-26 10:16 | -33.30723 | 152.73453 | 24278 ft | 394 kts | 169° |
| 2026-04-26 10:16 | -33.33360 | 152.74306 | 24279 ft | 391 kts | 154° |
| 2026-04-26 10:17 | -33.35670 | 152.75925 | 24278 ft | 389 kts | 140° |
| 2026-04-26 10:17 | -33.37560 | 152.78226 | 24279 ft | 387 kts | 125° |
| 2026-04-26 10:17 | -33.38877 | 152.81018 | 24280 ft | 387 kts | 111° |
| 2026-04-26 10:17 | -33.39546 | 152.84131 | 24281 ft | 388 kts | 96° |
| 2026-04-26 10:18 | -33.39515 | 152.87362 | 24279 ft | 389 kts | 82° |
| 2026-04-26 10:18 | -33.38784 | 152.90469 | 24282 ft | 391 kts | 67° |
| 2026-04-26 10:18 | -33.37390 | 152.93261 | 24280 ft | 394 kts | 52° |
| 2026-04-26 10:18 | -33.35411 | 152.95540 | 24284 ft | 398 kts | 37° |
| 2026-04-26 10:19 | -33.32975 | 152.97121 | 24277 ft | 402 kts | 22° |
| 2026-04-26 10:19 | -33.30249 | 152.97918 | 24283 ft | 404 kts | 12° |
| 2026-04-26 10:19 | -33.27481 | 152.98539 | 24280 ft | 405 kts | 13° |
| 2026-04-26 10:19 | -33.24712 | 152.99175 | 24279 ft | 404 kts | 13° |
| 2026-04-26 10:20 | -33.21940 | 152.99795 | 24280 ft | 404 kts | 12° |
| 2026-04-26 10:20 | -33.20099 | 153.00195 | 24283 ft | 405 kts | 12° |
| 2026-04-26 10:20 | -33.16422 | 153.00979 | 24282 ft | 405 kts | 12° |
| 2026-04-26 10:20 | -33.13645 | 153.01564 | 24281 ft | 405 kts | 12° |
| 2026-04-26 10:21 | -33.10870 | 153.02145 | 24281 ft | 405 kts | 12° |
| 2026-04-26 10:21 | -33.08089 | 153.02728 | 24280 ft | 405 kts | 12° |
| 2026-04-26 10:21 | -33.05310 | 153.03311 | 24278 ft | 406 kts | 12° |
| 2026-04-26 10:21 | -33.02528 | 153.03894 | 24280 ft | 405 kts | 12° |
| 2026-04-26 10:22 | -32.99744 | 153.04478 | 24278 ft | 406 kts | 12° |
| 2026-04-26 10:22 | -32.96965 | 153.05061 | 24277 ft | 406 kts | 12° |
| 2026-04-26 10:22 | -32.94186 | 153.05644 | 24278 ft | 406 kts | 12° |
| 2026-04-26 10:22 | -32.91400 | 153.06228 | 24279 ft | 406 kts | 12° |
| 2026-04-26 10:23 | -32.88621 | 153.06811 | 24277 ft | 406 kts | 12° |
| 2026-04-26 10:23 | -32.85837 | 153.07395 | 24281 ft | 406 kts | 12° |
| 2026-04-26 10:23 | -32.83049 | 153.07979 | 24280 ft | 406 kts | 12° |
| 2026-04-26 10:23 | -32.80254 | 153.08565 | 24279 ft | 406 kts | 12° |
| 2026-04-26 10:24 | -32.77470 | 153.09149 | 24278 ft | 407 kts | 12° |
| 2026-04-26 10:24 | -32.74678 | 153.09734 | 24281 ft | 407 kts | 12° |
| 2026-04-26 10:24 | -32.71894 | 153.10317 | 24280 ft | 407 kts | 12° |
| 2026-04-26 10:24 | -32.69094 | 153.10903 | 24278 ft | 407 kts | 12° |
| 2026-04-26 10:25 | -32.66341 | 153.11480 | 24275 ft | 407 kts | 12° |
| 2026-04-26 10:25 | -32.63524 | 153.11853 | 24278 ft | 410 kts | 1° |
| 2026-04-26 10:25 | -32.60690 | 153.11367 | 24280 ft | 414 kts | 345° |
| 2026-04-26 10:25 | -32.58054 | 153.09984 | 24279 ft | 417 kts | 328° |
| 2026-04-26 10:26 | -32.55813 | 153.07798 | 24278 ft | 419 kts | 312° |
| 2026-04-26 10:26 | -32.54144 | 153.04977 | 24274 ft | 420 kts | 296° |
| 2026-04-26 10:26 | -32.53173 | 153.01733 | 24276 ft | 419 kts | 280° |
| 2026-04-26 10:26 | -32.52972 | 152.98311 | 24277 ft | 416 kts | 264° |
| 2026-04-26 10:27 | -32.53556 | 152.94974 | 24275 ft | 413 kts | 247° |
| 2026-04-26 10:27 | -32.54869 | 152.91986 | 24277 ft | 408 kts | 231° |
| 2026-04-26 10:27 | -32.56805 | 152.89557 | 24278 ft | 403 kts | 215° |
| 2026-04-26 10:27 | -32.59178 | 152.87829 | 24274 ft | 398 kts | 201° |
| 2026-04-26 10:28 | -32.61801 | 152.86874 | 24277 ft | 394 kts | 187° |
| 2026-04-26 10:28 | -32.64503 | 152.86348 | 24277 ft | 394 kts | 186° |
| 2026-04-26 10:28 | -32.67217 | 152.85823 | 24277 ft | 394 kts | 187° |
| 2026-04-26 10:28 | -32.69924 | 152.85281 | 24276 ft | 394 kts | 187° |
| 2026-04-26 10:29 | -32.72629 | 152.84723 | 24272 ft | 394 kts | 187° |
| 2026-04-26 10:29 | -32.75329 | 152.84158 | 24276 ft | 394 kts | 187° |
| 2026-04-26 10:29 | -32.77998 | 152.83595 | 24276 ft | 394 kts | 187° |
| 2026-04-26 10:29 | -32.80736 | 152.83017 | 24276 ft | 394 kts | 187° |
| 2026-04-26 10:30 | -32.83402 | 152.82453 | 24276 ft | 395 kts | 187° |
| 2026-04-26 10:30 | -32.86106 | 152.81882 | 24276 ft | 394 kts | 187° |
| 2026-04-26 10:30 | -32.88806 | 152.81313 | 24277 ft | 394 kts | 187° |
| 2026-04-26 10:30 | -32.91510 | 152.80742 | 24278 ft | 395 kts | 187° |
| 2026-04-26 10:31 | -32.94205 | 152.80172 | 24277 ft | 395 kts | 187° |
| 2026-04-26 10:31 | -32.96917 | 152.79599 | 24276 ft | 395 kts | 187° |
| 2026-04-26 10:31 | -32.99612 | 152.79030 | 24277 ft | 395 kts | 187° |
| 2026-04-26 10:31 | -33.02329 | 152.78455 | 24275 ft | 395 kts | 187° |
| 2026-04-26 10:32 | -33.05033 | 152.77884 | 24279 ft | 395 kts | 187° |
| 2026-04-26 10:32 | -33.07742 | 152.77311 | 24278 ft | 395 kts | 187° |
| 2026-04-26 10:32 | -33.10445 | 152.76740 | 24281 ft | 395 kts | 187° |
| 2026-04-26 10:32 | -33.13152 | 152.76168 | 24279 ft | 395 kts | 187° |
| 2026-04-26 10:33 | -33.15868 | 152.75594 | 24278 ft | 395 kts | 187° |
| 2026-04-26 10:33 | -33.18577 | 152.75022 | 24279 ft | 395 kts | 187° |
| 2026-04-26 10:33 | -33.21246 | 152.74458 | 24280 ft | 395 kts | 187° |
| 2026-04-26 10:33 | -33.23954 | 152.73886 | 24277 ft | 395 kts | 187° |
| 2026-04-26 10:34 | -33.26666 | 152.73319 | 24278 ft | 395 kts | 185° |
| 2026-04-26 10:34 | -33.29389 | 152.73021 | 24282 ft | 392 kts | 174° |
| 2026-04-26 10:34 | -33.32077 | 152.73471 | 24283 ft | 389 kts | 163° |
| 2026-04-26 10:34 | -33.34576 | 152.74671 | 24284 ft | 386 kts | 149° |
| 2026-04-26 10:35 | -33.36711 | 152.76591 | 24281 ft | 384 kts | 134° |
| 2026-04-26 10:35 | -33.38349 | 152.79094 | 24280 ft | 383 kts | 120° |
| 2026-04-26 10:35 | -33.39392 | 152.81990 | 24280 ft | 384 kts | 106° |
| 2026-04-26 10:35 | -33.39792 | 152.85150 | 24284 ft | 385 kts | 92° |
| 2026-04-26 10:36 | -33.39505 | 152.88345 | 24283 ft | 388 kts | 78° |
| 2026-04-26 10:36 | -33.38543 | 152.91361 | 24285 ft | 391 kts | 63° |
| 2026-04-26 10:36 | -33.36953 | 152.94016 | 24282 ft | 395 kts | 49° |
| 2026-04-26 10:36 | -33.34817 | 152.96109 | 24281 ft | 400 kts | 34° |
| 2026-04-26 10:37 | -33.32268 | 152.97469 | 24284 ft | 405 kts | 18° |
| 2026-04-26 10:37 | -33.29491 | 152.98140 | 24286 ft | 407 kts | 13° |
| 2026-04-26 10:37 | -33.26712 | 152.98773 | 24281 ft | 407 kts | 13° |
| 2026-04-26 10:37 | -33.23927 | 152.99408 | 24284 ft | 407 kts | 13° |
| 2026-04-26 10:38 | -33.21138 | 153.00022 | 24284 ft | 407 kts | 13° |
| 2026-04-26 10:38 | -33.18386 | 153.00611 | 24282 ft | 408 kts | 13° |
| 2026-04-26 10:38 | -33.15584 | 153.01201 | 24284 ft | 408 kts | 13° |
| 2026-04-26 10:38 | -33.12787 | 153.01786 | 24285 ft | 408 kts | 13° |
| 2026-04-26 10:39 | -33.09991 | 153.02369 | 24280 ft | 408 kts | 13° |
| 2026-04-26 10:39 | -33.07197 | 153.02952 | 24281 ft | 408 kts | 13° |
| 2026-04-26 10:39 | -33.04394 | 153.03522 | 24282 ft | 408 kts | 11° |
| 2026-04-26 10:39 | -33.01583 | 153.04074 | 24281 ft | 408 kts | 11° |
| 2026-04-26 10:40 | -32.98781 | 153.04637 | 24278 ft | 409 kts | 12° |
| 2026-04-26 10:40 | -32.95974 | 153.05220 | 24281 ft | 409 kts | 12° |
| 2026-04-26 10:40 | -32.93173 | 153.05810 | 24283 ft | 408 kts | 12° |
| 2026-04-26 10:40 | -32.90371 | 153.06398 | 24279 ft | 409 kts | 10° |
| 2026-04-26 10:41 | -32.87562 | 153.06933 | 24279 ft | 409 kts | 10° |
| 2026-04-26 10:41 | -32.84745 | 153.07466 | 24282 ft | 409 kts | 10° |
| 2026-04-26 10:41 | -32.81967 | 153.08019 | 24282 ft | 409 kts | 11° |
| 2026-04-26 10:41 | -32.79127 | 153.08607 | 24282 ft | 409 kts | 11° |
| 2026-04-26 10:42 | -32.76360 | 153.09194 | 24281 ft | 409 kts | 12° |
| 2026-04-26 10:42 | -32.74469 | 153.09598 | 24282 ft | 409 kts | 12° |
| 2026-04-26 10:42 | -32.70754 | 153.10394 | 24281 ft | 409 kts | 12° |
| 2026-04-26 10:42 | -32.67946 | 153.10995 | 24282 ft | 409 kts | 12° |
| 2026-04-26 10:43 | -32.65147 | 153.11592 | 24283 ft | 410 kts | 12° |
| 2026-04-26 10:43 | -32.62298 | 153.11845 | 24285 ft | 414 kts | 357° |
| 2026-04-26 10:43 | -32.59471 | 153.11112 | 24281 ft | 419 kts | 339° |
| 2026-04-26 10:43 | -32.56926 | 153.09427 | 24282 ft | 422 kts | 322° |
| 2026-04-26 10:44 | -32.54889 | 153.06940 | 24280 ft | 423 kts | 304° |
| 2026-04-26 10:44 | -32.53533 | 153.03862 | 24281 ft | 422 kts | 287° |
| 2026-04-26 10:44 | -32.52975 | 153.00472 | 24281 ft | 419 kts | 269° |
| 2026-04-26 10:44 | -32.53253 | 152.97066 | 24281 ft | 415 kts | 252° |
| 2026-04-26 10:45 | -32.54331 | 152.93935 | 24279 ft | 409 kts | 235° |
| 2026-04-26 10:45 | -32.56108 | 152.91340 | 24278 ft | 403 kts | 218° |
| 2026-04-26 10:45 | -32.58412 | 152.89508 | 24278 ft | 397 kts | 201° |
| 2026-04-26 10:45 | -32.61031 | 152.88587 | 24280 ft | 390 kts | 184° |
| 2026-04-26 10:46 | -32.63727 | 152.88497 | 24277 ft | 388 kts | 175° |
| 2026-04-26 10:46 | -32.66385 | 152.88681 | 24277 ft | 387 kts | 173° |
| 2026-04-26 10:46 | -32.69070 | 152.88922 | 24282 ft | 387 kts | 173° |
| 2026-04-26 10:46 | -32.71751 | 152.89174 | 24279 ft | 387 kts | 172° |
| 2026-04-26 10:47 | -32.74439 | 152.89426 | 24274 ft | 387 kts | 173° |
| 2026-04-26 10:47 | -32.77117 | 152.89675 | 24274 ft | 386 kts | 172° |
| 2026-04-26 10:47 | -32.79799 | 152.89934 | 24279 ft | 386 kts | 172° |
| 2026-04-26 10:47 | -32.82489 | 152.90102 | 24275 ft | 388 kts | 179° |
| 2026-04-26 10:48 | -32.85170 | 152.89584 | 24284 ft | 394 kts | 194° |
| 2026-04-26 10:48 | -32.87686 | 152.88254 | 24285 ft | 399 kts | 206° |
| 2026-04-26 10:48 | -32.89987 | 152.86399 | 24286 ft | 402 kts | 214° |
| 2026-04-26 10:48 | -32.92117 | 152.84224 | 24279 ft | 405 kts | 224° |
| 2026-04-26 10:49 | -32.93279 | 152.82480 | 24281 ft | 409 kts | 234° |
| 2026-04-26 10:49 | -32.94517 | 152.79415 | 24279 ft | 414 kts | 250° |
| 2026-04-26 10:49 | -32.95043 | 152.76034 | 24277 ft | 419 kts | 265° |
| 2026-04-26 10:49 | -32.94561 | 152.71434 | 24280 ft | 422 kts | 287° |
| 2026-04-26 10:50 | -32.93829 | 152.69293 | 24280 ft | 423 kts | 297° |
| 2026-04-26 10:50 | -32.92162 | 152.66421 | 24277 ft | 423 kts | 313° |
| 2026-04-26 10:50 | -32.89927 | 152.64166 | 24272 ft | 422 kts | 329° |
| 2026-04-26 10:50 | -32.87283 | 152.62682 | 24278 ft | 419 kts | 345° |
| 2026-04-26 10:51 | -32.83504 | 152.62078 | 24275 ft | 413 kts | 6° |
| 2026-04-26 10:51 | -32.78871 | 152.63231 | 24279 ft | 409 kts | 18° |
| 2026-04-26 10:51 | -32.76127 | 152.64117 | 24282 ft | 411 kts | 18° |
| 2026-04-26 10:52 | -32.73297 | 152.65008 | 24280 ft | 431 kts | 17° |
| 2026-04-26 10:52 | -32.70315 | 152.65917 | 24279 ft | 453 kts | 17° |
| 2026-04-26 10:52 | -32.67192 | 152.66845 | 24278 ft | 471 kts | 16° |
| 2026-04-26 10:52 | -32.64000 | 152.67778 | 24279 ft | 470 kts | 16° |
| 2026-04-26 10:53 | -32.60822 | 152.68701 | 24277 ft | 470 kts | 16° |
| 2026-04-26 10:53 | -32.57644 | 152.69625 | 24279 ft | 470 kts | 16° |
| 2026-04-26 10:53 | -32.54462 | 152.70551 | 24278 ft | 470 kts | 16° |
| 2026-04-26 10:54 | -32.48110 | 152.72403 | 24279 ft | 470 kts | 16° |
| 2026-04-26 10:54 | -32.44926 | 152.73330 | 24276 ft | 471 kts | 16° |
| 2026-04-26 10:54 | -32.41751 | 152.74256 | 24277 ft | 471 kts | 16° |
| 2026-04-26 10:54 | -32.38569 | 152.75182 | 24279 ft | 470 kts | 16° |
| 2026-04-26 10:55 | -32.35391 | 152.76106 | 24279 ft | 471 kts | 16° |
| 2026-04-26 10:55 | -32.32213 | 152.77029 | 24282 ft | 471 kts | 16° |
| 2026-04-26 10:55 | -32.29030 | 152.77953 | 24283 ft | 471 kts | 16° |
| 2026-04-26 10:55 | -32.25885 | 152.78888 | 24281 ft | 470 kts | 19° |
| 2026-04-26 10:56 | -32.22798 | 152.80156 | 24285 ft | 467 kts | 25° |
| 2026-04-26 10:56 | -32.19779 | 152.81617 | 24286 ft | 468 kts | 25° |
| 2026-04-26 10:56 | -32.16754 | 152.83074 | 24283 ft | 468 kts | 25° |
| 2026-04-26 10:56 | -32.13745 | 152.84516 | 24285 ft | 468 kts | 25° |
| 2026-04-26 10:57 | -32.10724 | 152.85960 | 24285 ft | 468 kts | 25° |
| 2026-04-26 10:57 | -32.07699 | 152.87396 | 24284 ft | 468 kts | 24° |
| 2026-04-26 10:57 | -32.04712 | 152.88809 | 24285 ft | 468 kts | 24° |
| 2026-04-26 10:57 | -32.01689 | 152.90241 | 24284 ft | 468 kts | 24° |
| 2026-04-26 10:58 | -31.98660 | 152.91680 | 24287 ft | 468 kts | 24° |
| 2026-04-26 10:58 | -31.95641 | 152.93116 | 24285 ft | 468 kts | 24° |
| 2026-04-26 10:58 | -31.92622 | 152.94553 | 24288 ft | 468 kts | 24° |
| 2026-04-26 10:58 | -31.89597 | 152.95993 | 24287 ft | 468 kts | 24° |
| 2026-04-26 10:59 | -31.86579 | 152.97427 | 24286 ft | 468 kts | 24° |
| 2026-04-26 10:59 | -31.83618 | 152.98997 | 24281 ft | 465 kts | 32° |
| 2026-04-26 10:59 | -31.80985 | 153.01171 | 24285 ft | 461 kts | 44° |
| 2026-04-26 10:59 | -31.78807 | 153.03917 | 24285 ft | 456 kts | 56° |
| 2026-04-26 11:00 | -31.77187 | 153.07089 | 24284 ft | 452 kts | 68° |
| 2026-04-26 11:00 | -31.76127 | 153.10551 | 24288 ft | 450 kts | 75° |
| 2026-04-26 11:00 | -31.75217 | 153.14024 | 24283 ft | 450 kts | 75° |
| 2026-04-26 11:00 | -31.74287 | 153.17537 | 24284 ft | 450 kts | 75° |
| 2026-04-26 11:01 | -31.73342 | 153.21040 | 24286 ft | 450 kts | 74° |
| 2026-04-26 11:01 | -31.72382 | 153.24541 | 24285 ft | 450 kts | 74° |
| 2026-04-26 11:01 | -31.71416 | 153.28036 | 24287 ft | 450 kts | 74° |
| 2026-04-26 11:01 | -31.70445 | 153.31530 | 24281 ft | 450 kts | 74° |
| 2026-04-26 11:02 | -31.69469 | 153.35035 | 24281 ft | 450 kts | 74° |
| 2026-04-26 11:02 | -31.68497 | 153.38528 | 24280 ft | 450 kts | 74° |
| 2026-04-26 11:02 | -31.67522 | 153.42022 | 24283 ft | 450 kts | 74° |
| 2026-04-26 11:02 | -31.66525 | 153.45509 | 24279 ft | 450 kts | 71° |
| 2026-04-26 11:03 | -31.65226 | 153.48869 | 24275 ft | 453 kts | 64° |
| 2026-04-26 11:03 | -31.63530 | 153.52001 | 24278 ft | 456 kts | 56° |
| 2026-04-26 11:03 | -31.61474 | 153.54805 | 24279 ft | 449 kts | 47° |
| 2026-04-26 11:03 | -31.59184 | 153.57155 | 24277 ft | 437 kts | 39° |
| 2026-04-26 11:04 | -31.56645 | 153.59107 | 24274 ft | 425 kts | 32° |
| 2026-04-26 11:04 | -31.54046 | 153.60559 | 24278 ft | 413 kts | 24° |
| 2026-04-26 11:04 | -31.51346 | 153.61587 | 24279 ft | 401 kts | 17° |
| 2026-04-26 11:04 | -31.48639 | 153.62186 | 24281 ft | 392 kts | 9° |
| 2026-04-26 11:05 | -31.45895 | 153.62389 | 24284 ft | 399 kts | 2° |
| 2026-04-26 11:05 | -31.43103 | 153.62180 | 24280 ft | 402 kts | 354° |
| 2026-04-26 11:05 | -31.40356 | 153.61549 | 24275 ft | 403 kts | 346° |
| 2026-04-26 11:05 | -31.37690 | 153.60513 | 24274 ft | 404 kts | 339° |
| 2026-04-26 11:06 | -31.35154 | 153.59089 | 24281 ft | 405 kts | 331° |
| 2026-04-26 11:06 | -31.32819 | 153.57324 | 24277 ft | 406 kts | 323° |
| 2026-04-26 11:06 | -31.30665 | 153.55199 | 24274 ft | 406 kts | 316° |
| 2026-04-26 11:06 | -31.28757 | 153.52767 | 24278 ft | 405 kts | 308° |
| 2026-04-26 11:07 | -31.27133 | 153.50074 | 24276 ft | 405 kts | 300° |
| 2026-04-26 11:07 | -31.25815 | 153.47163 | 24276 ft | 404 kts | 292° |
| 2026-04-26 11:07 | -31.24830 | 153.44092 | 24279 ft | 403 kts | 285° |
| 2026-04-26 11:07 | -31.24185 | 153.40904 | 24278 ft | 402 kts | 277° |
| 2026-04-26 11:08 | -31.23893 | 153.37671 | 24279 ft | 400 kts | 270° |
| 2026-04-26 11:08 | -31.23951 | 153.34414 | 24278 ft | 398 kts | 262° |
| 2026-04-26 11:08 | -31.24355 | 153.31217 | 24278 ft | 396 kts | 255° |
| 2026-04-26 11:08 | -31.25082 | 153.28155 | 24278 ft | 394 kts | 248° |
| 2026-04-26 11:09 | -31.26131 | 153.25205 | 24281 ft | 392 kts | 240° |
| 2026-04-26 11:09 | -31.27475 | 153.22446 | 24277 ft | 390 kts | 233° |
| 2026-04-26 11:09 | -31.29090 | 153.19910 | 24280 ft | 387 kts | 226° |
| 2026-04-26 11:09 | -31.30945 | 153.17639 | 24280 ft | 385 kts | 219° |
| 2026-04-26 11:10 | -31.33009 | 153.15658 | 24282 ft | 382 kts | 212° |
| 2026-04-26 11:10 | -31.35250 | 153.13992 | 24285 ft | 380 kts | 206° |
| 2026-04-26 11:10 | -31.37627 | 153.12662 | 24286 ft | 378 kts | 199° |
| 2026-04-26 11:10 | -31.40111 | 153.11675 | 24284 ft | 376 kts | 192° |
| 2026-04-26 11:11 | -31.42668 | 153.11037 | 24287 ft | 375 kts | 187° |
| 2026-04-26 11:11 | -31.45199 | 153.10501 | 24285 ft | 375 kts | 188° |
| 2026-04-26 11:11 | -31.47767 | 153.09938 | 24286 ft | 375 kts | 188° |
| 2026-04-26 11:11 | -31.50346 | 153.09379 | 24284 ft | 376 kts | 188° |
| 2026-04-26 11:12 | -31.52915 | 153.08831 | 24285 ft | 375 kts | 188° |
| 2026-04-26 11:12 | -31.55491 | 153.08289 | 24283 ft | 375 kts | 187° |
| 2026-04-26 11:12 | -31.58063 | 153.07750 | 24287 ft | 375 kts | 187° |
| 2026-04-26 11:12 | -31.60607 | 153.07220 | 24282 ft | 375 kts | 187° |
| 2026-04-26 11:13 | -31.63195 | 153.06677 | 24290 ft | 385 kts | 190° |
| 2026-04-26 11:13 | -31.65808 | 153.05625 | 24292 ft | 411 kts | 202° |
| 2026-04-26 11:13 | -31.68462 | 153.04051 | 24287 ft | 434 kts | 205° |
| 2026-04-26 11:13 | -31.71135 | 153.02324 | 24288 ft | 454 kts | 207° |
| 2026-04-26 11:14 | -31.73893 | 153.00462 | 24286 ft | 456 kts | 207° |
| 2026-04-26 11:14 | -31.76621 | 152.98586 | 24284 ft | 455 kts | 210° |
| 2026-04-26 11:14 | -31.79335 | 152.96643 | 24285 ft | 456 kts | 210° |
| 2026-04-26 11:14 | -31.82037 | 152.94697 | 24285 ft | 456 kts | 210° |
| 2026-04-26 11:15 | -31.84770 | 152.92773 | 24283 ft | 455 kts | 209° |
| 2026-04-26 11:15 | -31.87492 | 152.90890 | 24111 ft | 453 kts | 208° |
| 2026-04-26 11:15 | -31.90216 | 152.89024 | 23650 ft | 452 kts | 208° |
| 2026-04-26 11:15 | -31.92930 | 152.87173 | 23160 ft | 449 kts | 208° |
| 2026-04-26 11:16 | -31.95615 | 152.85321 | 22554 ft | 446 kts | 210° |
| 2026-04-26 11:16 | -31.98278 | 152.83463 | 21923 ft | 443 kts | 210° |
| 2026-04-26 11:16 | -32.00918 | 152.81631 | 21343 ft | 439 kts | 210° |
| 2026-04-26 11:16 | -32.03511 | 152.79845 | 20777 ft | 436 kts | 209° |
| 2026-04-26 11:17 | -32.06128 | 152.78051 | 20196 ft | 432 kts | 209° |
| 2026-04-26 11:17 | -32.08724 | 152.76275 | 19629 ft | 430 kts | 209° |
| 2026-04-26 11:17 | -32.11300 | 152.74513 | 19075 ft | 426 kts | 209° |
| 2026-04-26 11:17 | -32.13858 | 152.72760 | 18510 ft | 423 kts | 210° |
| 2026-04-26 11:18 | -32.16404 | 152.71030 | 17880 ft | 420 kts | 209° |
| 2026-04-26 11:18 | -32.18924 | 152.69299 | 17265 ft | 417 kts | 209° |
| 2026-04-26 11:18 | -32.21419 | 152.67579 | 16636 ft | 413 kts | 209° |
| 2026-04-26 11:18 | -32.23895 | 152.65869 | 16012 ft | 410 kts | 209° |
| 2026-04-26 11:19 | -32.26349 | 152.64176 | 15384 ft | 407 kts | 209° |
| 2026-04-26 11:19 | -32.28782 | 152.62489 | 14761 ft | 404 kts | 212° |
| 2026-04-26 11:19 | -32.31156 | 152.60731 | 14070 ft | 401 kts | 213° |
| 2026-04-26 11:19 | -32.33510 | 152.58983 | 13363 ft | 397 kts | 212° |
| 2026-04-26 11:20 | -32.35833 | 152.57314 | 12790 ft | 391 kts | 211° |
| 2026-04-26 11:20 | -32.37405 | 152.56212 | 12407 ft | 387 kts | 211° |
| 2026-04-26 11:20 | -32.40467 | 152.54104 | 11552 ft | 382 kts | 210° |
| 2026-04-26 11:20 | -32.42760 | 152.52539 | 10965 ft | 378 kts | 210° |
| 2026-04-26 11:21 | -32.44995 | 152.51015 | 10776 ft | 363 kts | 209° |
| 2026-04-26 11:21 | -32.47139 | 152.49552 | 10616 ft | 348 kts | 209° |
| 2026-04-26 11:21 | -32.49190 | 152.48154 | 10466 ft | 333 kts | 208° |
| 2026-04-26 11:21 | -32.51153 | 152.46831 | 10340 ft | 318 kts | 208° |
| 2026-04-26 11:22 | -32.53036 | 152.45567 | 10194 ft | 304 kts | 208° |
| 2026-04-26 11:22 | -32.54857 | 152.44334 | 9772 ft | 299 kts | 208° |
| 2026-04-26 11:22 | -32.56656 | 152.43103 | 9278 ft | 298 kts | 208° |
| 2026-04-26 11:22 | -32.58437 | 152.41875 | 8809 ft | 295 kts | 208° |
| 2026-04-26 11:23 | -32.60206 | 152.40650 | 8331 ft | 293 kts | 209° |
| 2026-04-26 11:23 | -32.61963 | 152.39429 | 7839 ft | 292 kts | 209° |
| 2026-04-26 11:23 | -32.63710 | 152.38213 | 7347 ft | 290 kts | 209° |
| 2026-04-26 11:23 | -32.65445 | 152.37004 | 6876 ft | 288 kts | 209° |
| 2026-04-26 11:24 | -32.67177 | 152.35797 | 6364 ft | 287 kts | 210° |
| 2026-04-26 11:24 | -32.68866 | 152.34616 | 5896 ft | 284 kts | 210° |
| 2026-04-26 11:24 | -32.70559 | 152.33424 | 5412 ft | 281 kts | 210° |
| 2026-04-26 11:24 | -32.72121 | 152.32047 | 4887 ft | 280 kts | 225° |
| 2026-04-26 11:25 | -32.73351 | 152.30251 | 4340 ft | 280 kts | 233° |
| 2026-04-26 11:25 | -32.74500 | 152.28431 | 4056 ft | 270 kts | 233° |
| 2026-04-26 11:25 | -32.75640 | 152.26627 | 4027 ft | 277 kts | 233° |
| 2026-04-26 11:25 | -32.76757 | 152.24764 | 4027 ft | 275 kts | 238° |
| 2026-04-26 11:26 | -32.77673 | 152.22770 | 4028 ft | 275 kts | 243° |
| 2026-04-26 11:26 | -32.78546 | 152.20749 | 4019 ft | 274 kts | 243° |
| 2026-04-26 11:26 | -32.79415 | 152.18736 | 3781 ft | 273 kts | 243° |
| 2026-04-26 11:26 | -32.80286 | 152.16738 | 3361 ft | 271 kts | 243° |
| 2026-04-26 11:27 | -32.81153 | 152.14761 | 3144 ft | 272 kts | 243° |